sensor_id;sensor_type;location;lat;lon;timestamp;P1;durP1;ratioP1;P2;durP2;ratioP2
70558;SDS011;58108;48.094;11.838;2022-12-01T00:02:00;41.63;;;13.80;;
70558;SDS011;58108;48.094;11.838;2022-12-01T00:04:26;42.53;;;13.27;;
70558;SDS011;58108;48.094;11.838;2022-12-01T00:06:51;40.60;;;13.48;;
70558;SDS011;58108;48.094;11.838;2022-12-01T00:09:16;40.70;;;13.65;;
70558;SDS011;58108;48.094;11.838;2022-12-01T00:12:00;43.08;;;13.15;;
70558;SDS011;58108;48.094;11.838;2022-12-01T00:14:25;43.57;;;13.67;;
70558;SDS011;58108;48.094;11.838;2022-12-01T00:16:50;45.80;;;14.57;;
70558;SDS011;58108;48.094;11.838;2022-12-01T00:19:16;47.08;;;13.32;;
70558;SDS011;58108;48.094;11.838;2022-12-01T00:21:41;50.13;;;14.55;;
70558;SDS011;58108;48.094;11.838;2022-12-01T00:24:07;47.73;;;14.47;;
70558;SDS011;58108;48.094;11.838;2022-12-01T00:26:33;44.05;;;13.15;;
70558;SDS011;58108;48.094;11.838;2022-12-01T00:29:01;47.50;;;14.13;;
70558;SDS011;58108;48.094;11.838;2022-12-01T00:31:27;46.13;;;13.33;;
70558;SDS011;58108;48.094;11.838;2022-12-01T00:33:52;47.50;;;13.90;;
70558;SDS011;58108;48.094;11.838;2022-12-01T00:36:18;43.30;;;13.13;;
70558;SDS011;58108;48.094;11.838;2022-12-01T00:38:43;52.20;;;14.30;;
70558;SDS011;58108;48.094;11.838;2022-12-01T00:41:09;48.42;;;13.65;;
70558;SDS011;58108;48.094;11.838;2022-12-01T00:43:34;51.73;;;15.80;;
70558;SDS011;58108;48.094;11.838;2022-12-01T00:46:00;47.20;;;13.53;;
70558;SDS011;58108;48.094;11.838;2022-12-01T00:48:25;47.53;;;14.40;;
70558;SDS011;58108;48.094;11.838;2022-12-01T00:50:51;41.17;;;13.40;;
70558;SDS011;58108;48.094;11.838;2022-12-01T00:53:17;42.28;;;13.27;;
70558;SDS011;58108;48.094;11.838;2022-12-01T00:55:43;42.63;;;14.10;;
70558;SDS011;58108;48.094;11.838;2022-12-01T00:58:09;47.43;;;12.80;;
70558;SDS011;58108;48.094;11.838;2022-12-01T01:00:34;43.05;;;13.60;;
70558;SDS011;58108;48.094;11.838;2022-12-01T01:03:02;45.13;;;13.40;;
70558;SDS011;58108;48.094;11.838;2022-12-01T01:05:30;48.53;;;13.90;;
70558;SDS011;58108;48.094;11.838;2022-12-01T01:07:55;44.07;;;13.57;;
70558;SDS011;58108;48.094;11.838;2022-12-01T01:10:20;48.23;;;14.27;;
70558;SDS011;58108;48.094;11.838;2022-12-01T01:12:46;45.25;;;13.93;;
70558;SDS011;58108;48.094;11.838;2022-12-01T01:15:11;50.27;;;14.73;;
70558;SDS011;58108;48.094;11.838;2022-12-01T01:17:37;46.50;;;13.97;;
70558;SDS011;58108;48.094;11.838;2022-12-01T01:20:02;43.63;;;13.97;;
70558;SDS011;58108;48.094;11.838;2022-12-01T01:22:28;47.22;;;14.18;;
70558;SDS011;58108;48.094;11.838;2022-12-01T01:24:53;44.87;;;13.23;;
70558;SDS011;58108;48.094;11.838;2022-12-01T01:27:18;49.93;;;13.80;;
70558;SDS011;58108;48.094;11.838;2022-12-01T01:29:44;39.47;;;12.50;;
70558;SDS011;58108;48.094;11.838;2022-12-01T01:32:09;40.70;;;12.00;;
70558;SDS011;58108;48.094;11.838;2022-12-01T01:34:34;46.13;;;13.00;;
70558;SDS011;58108;48.094;11.838;2022-12-01T01:36:59;49.43;;;13.17;;
70558;SDS011;58108;48.094;11.838;2022-12-01T01:39:25;42.27;;;12.17;;
70558;SDS011;58108;48.094;11.838;2022-12-01T01:41:50;41.40;;;12.03;;
70558;SDS011;58108;48.094;11.838;2022-12-01T01:47:11;43.97;;;11.57;;
70558;SDS011;58108;48.094;11.838;2022-12-01T01:49:37;43.35;;;12.07;;
70558;SDS011;58108;48.094;11.838;2022-12-01T01:52:04;52.23;;;14.23;;
70558;SDS011;58108;48.094;11.838;2022-12-01T01:54:30;45.90;;;12.48;;
70558;SDS011;58108;48.094;11.838;2022-12-01T01:57:00;39.63;;;12.10;;
70558;SDS011;58108;48.094;11.838;2022-12-01T01:59:27;50.47;;;13.27;;
70558;SDS011;58108;48.094;11.838;2022-12-01T02:02:06;51.88;;;13.27;;
70558;SDS011;58108;48.094;11.838;2022-12-01T02:04:36;43.78;;;11.43;;
70558;SDS011;58108;48.094;11.838;2022-12-01T02:07:04;40.10;;;11.93;;
70558;SDS011;58108;48.094;11.838;2022-12-01T02:09:31;42.73;;;11.33;;
70558;SDS011;58108;48.094;11.838;2022-12-01T02:22:52;47.55;;;12.85;;
70558;SDS011;58108;48.094;11.838;2022-12-01T02:30:49;58.97;;;14.57;;
70558;SDS011;58108;48.094;11.838;2022-12-01T02:36:39;58.03;;;14.18;;
70558;SDS011;58108;48.094;11.838;2022-12-01T02:39:27;57.72;;;14.68;;
70558;SDS011;58108;48.094;11.838;2022-12-01T02:42:08;57.42;;;15.27;;
70558;SDS011;58108;48.094;11.838;2022-12-01T02:45:02;61.53;;;15.67;;
70558;SDS011;58108;48.094;11.838;2022-12-01T02:47:30;62.47;;;15.98;;
70558;SDS011;58108;48.094;11.838;2022-12-01T02:49:57;76.03;;;16.45;;
70558;SDS011;58108;48.094;11.838;2022-12-01T02:52:25;62.88;;;15.60;;
70558;SDS011;58108;48.094;11.838;2022-12-01T02:54:51;54.70;;;15.05;;
70558;SDS011;58108;48.094;11.838;2022-12-01T02:57:17;53.57;;;14.57;;
70558;SDS011;58108;48.094;11.838;2022-12-01T02:59:44;57.47;;;15.10;;
70558;SDS011;58108;48.094;11.838;2022-12-01T03:02:23;51.03;;;14.38;;
70558;SDS011;58108;48.094;11.838;2022-12-01T03:21:19;66.22;;;16.40;;
70558;SDS011;58108;48.094;11.838;2022-12-01T03:23:51;64.20;;;15.30;;
70558;SDS011;58108;48.094;11.838;2022-12-01T03:26:20;70.82;;;16.38;;
70558;SDS011;58108;48.094;11.838;2022-12-01T03:28:50;59.40;;;14.82;;
70558;SDS011;58108;48.094;11.838;2022-12-01T03:31:19;54.60;;;14.65;;
70558;SDS011;58108;48.094;11.838;2022-12-01T03:34:03;52.03;;;14.10;;
70558;SDS011;58108;48.094;11.838;2022-12-01T03:36:36;57.07;;;13.80;;
70558;SDS011;58108;48.094;11.838;2022-12-01T03:39:08;50.88;;;13.93;;
70558;SDS011;58108;48.094;11.838;2022-12-01T03:41:42;52.33;;;15.15;;
70558;SDS011;58108;48.094;11.838;2022-12-01T03:44:15;49.30;;;14.13;;
70558;SDS011;58108;48.094;11.838;2022-12-01T03:46:52;47.80;;;13.73;;
70558;SDS011;58108;48.094;11.838;2022-12-01T03:49:22;51.97;;;14.23;;
70558;SDS011;58108;48.094;11.838;2022-12-01T03:54:32;56.72;;;15.68;;
70558;SDS011;58108;48.094;11.838;2022-12-01T03:57:16;56.38;;;14.43;;
70558;SDS011;58108;48.094;11.838;2022-12-01T03:59:47;54.90;;;15.07;;
70558;SDS011;58108;48.094;11.838;2022-12-01T04:02:13;52.37;;;14.57;;
70558;SDS011;58108;48.094;11.838;2022-12-01T04:04:39;52.10;;;14.00;;
70558;SDS011;58108;48.094;11.838;2022-12-01T04:07:04;51.73;;;14.47;;
70558;SDS011;58108;48.094;11.838;2022-12-01T04:09:29;53.03;;;14.15;;
70558;SDS011;58108;48.094;11.838;2022-12-01T04:11:55;52.03;;;15.17;;
70558;SDS011;58108;48.094;11.838;2022-12-01T04:14:38;50.57;;;14.07;;
70558;SDS011;58108;48.094;11.838;2022-12-01T04:17:04;51.90;;;14.57;;
70558;SDS011;58108;48.094;11.838;2022-12-01T04:19:29;55.92;;;14.85;;
70558;SDS011;58108;48.094;11.838;2022-12-01T04:21:54;49.00;;;14.50;;
70558;SDS011;58108;48.094;11.838;2022-12-01T04:24:20;52.10;;;14.43;;
70558;SDS011;58108;48.094;11.838;2022-12-01T04:26:45;51.87;;;14.13;;
70558;SDS011;58108;48.094;11.838;2022-12-01T04:29:11;61.03;;;15.57;;
70558;SDS011;58108;48.094;11.838;2022-12-01T04:31:37;53.72;;;15.25;;
70558;SDS011;58108;48.094;11.838;2022-12-01T04:34:02;49.50;;;14.73;;
70558;SDS011;58108;48.094;11.838;2022-12-01T04:36:29;49.55;;;14.40;;
70558;SDS011;58108;48.094;11.838;2022-12-01T04:38:56;54.77;;;14.27;;
70558;SDS011;58108;48.094;11.838;2022-12-01T04:41:22;46.20;;;13.63;;
70558;SDS011;58108;48.094;11.838;2022-12-01T04:43:47;56.37;;;14.43;;
70558;SDS011;58108;48.094;11.838;2022-12-01T04:46:12;57.23;;;15.40;;
70558;SDS011;58108;48.094;11.838;2022-12-01T04:48:38;61.83;;;15.88;;
70558;SDS011;58108;48.094;11.838;2022-12-01T04:51:05;55.40;;;15.07;;
70558;SDS011;58108;48.094;11.838;2022-12-01T04:53:32;58.85;;;15.93;;
70558;SDS011;58108;48.094;11.838;2022-12-01T04:56:00;60.33;;;17.67;;
70558;SDS011;58108;48.094;11.838;2022-12-01T04:58:27;58.15;;;16.17;;
70558;SDS011;58108;48.094;11.838;2022-12-01T05:00:53;63.92;;;17.60;;
70558;SDS011;58108;48.094;11.838;2022-12-01T05:03:18;57.77;;;16.47;;
70558;SDS011;58108;48.094;11.838;2022-12-01T05:05:44;62.63;;;16.40;;
70558;SDS011;58108;48.094;11.838;2022-12-01T05:08:09;64.40;;;17.17;;
70558;SDS011;58108;48.094;11.838;2022-12-01T05:10:35;57.40;;;15.82;;
70558;SDS011;58108;48.094;11.838;2022-12-01T05:13:01;57.45;;;15.95;;
70558;SDS011;58108;48.094;11.838;2022-12-01T05:15:27;61.57;;;15.60;;
70558;SDS011;58108;48.094;11.838;2022-12-01T05:17:52;56.10;;;15.02;;
70558;SDS011;58108;48.094;11.838;2022-12-01T05:20:19;64.57;;;16.75;;
70558;SDS011;58108;48.094;11.838;2022-12-01T05:23:05;65.28;;;16.83;;
70558;SDS011;58108;48.094;11.838;2022-12-01T05:25:30;68.95;;;17.33;;
70558;SDS011;58108;48.094;11.838;2022-12-01T05:27:56;61.45;;;17.98;;
70558;SDS011;58108;48.094;11.838;2022-12-01T05:30:22;67.17;;;16.73;;
70558;SDS011;58108;48.094;11.838;2022-12-01T05:32:47;58.80;;;15.73;;
70558;SDS011;58108;48.094;11.838;2022-12-01T05:35:12;61.00;;;16.13;;
70558;SDS011;58108;48.094;11.838;2022-12-01T05:37:37;59.23;;;15.57;;
70558;SDS011;58108;48.094;11.838;2022-12-01T05:40:03;55.33;;;14.83;;
70558;SDS011;58108;48.094;11.838;2022-12-01T05:42:29;54.03;;;14.63;;
70558;SDS011;58108;48.094;11.838;2022-12-01T05:44:54;49.85;;;13.73;;
70558;SDS011;58108;48.094;11.838;2022-12-01T05:47:19;53.15;;;13.50;;
70558;SDS011;58108;48.094;11.838;2022-12-01T05:49:44;52.40;;;13.88;;
70558;SDS011;58108;48.094;11.838;2022-12-01T05:52:10;53.30;;;14.47;;
70558;SDS011;58108;48.094;11.838;2022-12-01T05:54:35;45.57;;;12.43;;
70558;SDS011;58108;48.094;11.838;2022-12-01T05:57:00;43.63;;;14.07;;
70558;SDS011;58108;48.094;11.838;2022-12-01T05:59:26;45.93;;;13.20;;
70558;SDS011;58108;48.094;11.838;2022-12-01T06:01:51;47.10;;;13.07;;
70558;SDS011;58108;48.094;11.838;2022-12-01T06:04:16;50.53;;;13.93;;
70558;SDS011;58108;48.094;11.838;2022-12-01T06:06:42;42.70;;;12.27;;
70558;SDS011;58108;48.094;11.838;2022-12-01T06:09:08;39.53;;;12.10;;
70558;SDS011;58108;48.094;11.838;2022-12-01T06:11:33;42.77;;;13.23;;
70558;SDS011;58108;48.094;11.838;2022-12-01T06:13:58;42.27;;;11.83;;
70558;SDS011;58108;48.094;11.838;2022-12-01T06:16:24;42.97;;;12.77;;
70558;SDS011;58108;48.094;11.838;2022-12-01T06:18:49;49.73;;;14.93;;
70558;SDS011;58108;48.094;11.838;2022-12-01T06:21:14;47.45;;;13.05;;
70558;SDS011;58108;48.094;11.838;2022-12-01T06:23:40;46.30;;;13.13;;
70558;SDS011;58108;48.094;11.838;2022-12-01T06:26:05;40.37;;;12.33;;
70558;SDS011;58108;48.094;11.838;2022-12-01T06:28:30;38.33;;;12.23;;
70558;SDS011;58108;48.094;11.838;2022-12-01T06:30:56;41.93;;;12.00;;
70558;SDS011;58108;48.094;11.838;2022-12-01T06:33:21;37.97;;;11.53;;
70558;SDS011;58108;48.094;11.838;2022-12-01T06:35:46;35.13;;;11.10;;
70558;SDS011;58108;48.094;11.838;2022-12-01T06:38:11;41.00;;;12.17;;
70558;SDS011;58108;48.094;11.838;2022-12-01T06:40:37;39.03;;;12.80;;
70558;SDS011;58108;48.094;11.838;2022-12-01T06:43:02;44.23;;;12.23;;
70558;SDS011;58108;48.094;11.838;2022-12-01T06:45:28;38.70;;;12.23;;
70558;SDS011;58108;48.094;11.838;2022-12-01T06:47:54;47.30;;;13.45;;
70558;SDS011;58108;48.094;11.838;2022-12-01T06:50:20;44.23;;;12.40;;
70558;SDS011;58108;48.094;11.838;2022-12-01T06:52:45;44.03;;;13.27;;
70558;SDS011;58108;48.094;11.838;2022-12-01T06:55:11;39.30;;;12.27;;
70558;SDS011;58108;48.094;11.838;2022-12-01T06:57:37;36.80;;;11.00;;
70558;SDS011;58108;48.094;11.838;2022-12-01T07:00:03;35.63;;;11.57;;
70558;SDS011;58108;48.094;11.838;2022-12-01T07:02:28;38.80;;;11.07;;
70558;SDS011;58108;48.094;11.838;2022-12-01T07:04:54;38.63;;;11.90;;
70558;SDS011;58108;48.094;11.838;2022-12-01T07:07:19;36.40;;;11.53;;
70558;SDS011;58108;48.094;11.838;2022-12-01T07:09:44;36.13;;;11.50;;
70558;SDS011;58108;48.094;11.838;2022-12-01T07:12:09;39.47;;;11.70;;
70558;SDS011;58108;48.094;11.838;2022-12-01T07:14:35;38.87;;;11.47;;
70558;SDS011;58108;48.094;11.838;2022-12-01T07:17:00;39.67;;;11.07;;
70558;SDS011;58108;48.094;11.838;2022-12-01T07:19:25;39.43;;;11.67;;
70558;SDS011;58108;48.094;11.838;2022-12-01T07:21:51;41.23;;;12.13;;
70558;SDS011;58108;48.094;11.838;2022-12-01T07:24:16;38.33;;;12.10;;
70558;SDS011;58108;48.094;11.838;2022-12-01T07:26:41;42.13;;;12.13;;
70558;SDS011;58108;48.094;11.838;2022-12-01T07:29:07;38.05;;;12.07;;
70558;SDS011;58108;48.094;11.838;2022-12-01T07:31:36;39.70;;;11.77;;
70558;SDS011;58108;48.094;11.838;2022-12-01T07:34:02;45.53;;;12.57;;
70558;SDS011;58108;48.094;11.838;2022-12-01T07:36:28;44.20;;;12.48;;
70558;SDS011;58108;48.094;11.838;2022-12-01T07:38:53;46.17;;;12.47;;
70558;SDS011;58108;48.094;11.838;2022-12-01T07:41:19;43.23;;;13.57;;
70558;SDS011;58108;48.094;11.838;2022-12-01T07:43:44;48.55;;;14.20;;
70558;SDS011;58108;48.094;11.838;2022-12-01T07:46:14;42.03;;;12.80;;
70558;SDS011;58108;48.094;11.838;2022-12-01T07:48:45;45.47;;;13.70;;
70558;SDS011;58108;48.094;11.838;2022-12-01T07:51:11;47.07;;;13.53;;
70558;SDS011;58108;48.094;11.838;2022-12-01T07:53:40;46.22;;;12.57;;
70558;SDS011;58108;48.094;11.838;2022-12-01T07:56:05;48.27;;;13.53;;
70558;SDS011;58108;48.094;11.838;2022-12-01T07:58:31;49.85;;;12.95;;
70558;SDS011;58108;48.094;11.838;2022-12-01T08:00:57;38.03;;;11.87;;
70558;SDS011;58108;48.094;11.838;2022-12-01T08:03:22;43.13;;;12.87;;
70558;SDS011;58108;48.094;11.838;2022-12-01T08:05:58;38.03;;;11.65;;
70558;SDS011;58108;48.094;11.838;2022-12-01T08:08:24;39.05;;;12.25;;
70558;SDS011;58108;48.094;11.838;2022-12-01T08:10:50;43.83;;;13.37;;
70558;SDS011;58108;48.094;11.838;2022-12-01T08:13:16;43.72;;;12.73;;
70558;SDS011;58108;48.094;11.838;2022-12-01T08:15:42;43.47;;;12.35;;
70558;SDS011;58108;48.094;11.838;2022-12-01T08:18:08;42.35;;;11.90;;
70558;SDS011;58108;48.094;11.838;2022-12-01T08:20:33;38.13;;;11.17;;
70558;SDS011;58108;48.094;11.838;2022-12-01T08:22:59;38.93;;;11.77;;
70558;SDS011;58108;48.094;11.838;2022-12-01T08:25:25;37.28;;;11.70;;
70558;SDS011;58108;48.094;11.838;2022-12-01T08:27:51;34.57;;;10.77;;
70558;SDS011;58108;48.094;11.838;2022-12-01T08:30:16;34.53;;;10.70;;
70558;SDS011;58108;48.094;11.838;2022-12-01T08:32:41;29.80;;;10.07;;
70558;SDS011;58108;48.094;11.838;2022-12-01T08:35:07;32.77;;;10.60;;
70558;SDS011;58108;48.094;11.838;2022-12-01T08:37:32;31.73;;;10.52;;
70558;SDS011;58108;48.094;11.838;2022-12-01T08:39:57;34.50;;;11.30;;
70558;SDS011;58108;48.094;11.838;2022-12-01T08:42:23;33.73;;;10.00;;
70558;SDS011;58108;48.094;11.838;2022-12-01T08:44:48;32.73;;;10.73;;
70558;SDS011;58108;48.094;11.838;2022-12-01T08:47:13;38.27;;;9.87;;
70558;SDS011;58108;48.094;11.838;2022-12-01T08:49:38;35.37;;;10.47;;
70558;SDS011;58108;48.094;11.838;2022-12-01T08:52:04;34.83;;;10.23;;
70558;SDS011;58108;48.094;11.838;2022-12-01T08:54:29;29.83;;;9.77;;
70558;SDS011;58108;48.094;11.838;2022-12-01T08:56:54;31.60;;;10.37;;
70558;SDS011;58108;48.094;11.838;2022-12-01T08:59:20;28.07;;;9.10;;
70558;SDS011;58108;48.094;11.838;2022-12-01T09:01:45;29.10;;;9.63;;
70558;SDS011;58108;48.094;11.838;2022-12-01T09:04:17;23.42;;;9.32;;
70558;SDS011;58108;48.094;11.838;2022-12-01T09:06:47;29.75;;;9.77;;
70558;SDS011;58108;48.094;11.838;2022-12-01T09:09:15;30.40;;;9.83;;
70558;SDS011;58108;48.094;11.838;2022-12-01T09:11:45;30.38;;;9.35;;
70558;SDS011;58108;48.094;11.838;2022-12-01T09:14:12;27.83;;;10.13;;
70558;SDS011;58108;48.094;11.838;2022-12-01T09:16:39;30.65;;;9.07;;
70558;SDS011;58108;48.094;11.838;2022-12-01T09:19:06;31.48;;;9.30;;
70558;SDS011;58108;48.094;11.838;2022-12-01T09:21:32;29.90;;;9.73;;
70558;SDS011;58108;48.094;11.838;2022-12-01T09:23:59;31.60;;;10.32;;
70558;SDS011;58108;48.094;11.838;2022-12-01T09:26:25;28.25;;;9.30;;
70558;SDS011;58108;48.094;11.838;2022-12-01T09:28:52;29.08;;;9.85;;
70558;SDS011;58108;48.094;11.838;2022-12-01T09:31:19;30.07;;;8.77;;
70558;SDS011;58108;48.094;11.838;2022-12-01T09:33:47;29.27;;;10.38;;
70558;SDS011;58108;48.094;11.838;2022-12-01T09:36:17;29.65;;;9.00;;
70558;SDS011;58108;48.094;11.838;2022-12-01T09:38:42;30.43;;;9.53;;
70558;SDS011;58108;48.094;11.838;2022-12-01T09:41:12;27.10;;;10.07;;
70558;SDS011;58108;48.094;11.838;2022-12-01T09:44:01;28.05;;;8.55;;
70558;SDS011;58108;48.094;11.838;2022-12-01T09:46:47;26.70;;;8.57;;
70558;SDS011;58108;48.094;11.838;2022-12-01T09:49:24;24.97;;;8.60;;
70558;SDS011;58108;48.094;11.838;2022-12-01T09:51:59;24.40;;;8.30;;
70558;SDS011;58108;48.094;11.838;2022-12-01T09:54:25;27.77;;;10.00;;
70558;SDS011;58108;48.094;11.838;2022-12-01T09:56:52;28.20;;;9.73;;
70558;SDS011;58108;48.094;11.838;2022-12-01T09:59:20;24.40;;;8.02;;
70558;SDS011;58108;48.094;11.838;2022-12-01T10:01:53;28.20;;;8.40;;
70558;SDS011;58108;48.094;11.838;2022-12-01T10:04:32;24.30;;;7.70;;
70558;SDS011;58108;48.094;11.838;2022-12-01T10:07:02;27.50;;;9.32;;
70558;SDS011;58108;48.094;11.838;2022-12-01T10:09:53;27.25;;;8.82;;
70558;SDS011;58108;48.094;11.838;2022-12-01T10:12:24;27.98;;;9.00;;
70558;SDS011;58108;48.094;11.838;2022-12-01T10:17:50;22.47;;;8.23;;
70558;SDS011;58108;48.094;11.838;2022-12-01T10:20:26;23.00;;;8.32;;
70558;SDS011;58108;48.094;11.838;2022-12-01T10:25:58;26.15;;;8.90;;
70558;SDS011;58108;48.094;11.838;2022-12-01T10:31:31;28.70;;;9.40;;
70558;SDS011;58108;48.094;11.838;2022-12-01T10:34:03;24.75;;;8.63;;
70558;SDS011;58108;48.094;11.838;2022-12-01T10:36:32;31.33;;;9.60;;
70558;SDS011;58108;48.094;11.838;2022-12-01T10:38:59;26.50;;;9.48;;
70558;SDS011;58108;48.094;11.838;2022-12-01T10:41:26;25.15;;;8.75;;
70558;SDS011;58108;48.094;11.838;2022-12-01T10:43:57;26.13;;;9.23;;
70558;SDS011;58108;48.094;11.838;2022-12-01T10:46:27;26.50;;;8.93;;
70558;SDS011;58108;48.094;11.838;2022-12-01T10:49:05;23.35;;;8.05;;
70558;SDS011;58108;48.094;11.838;2022-12-01T10:51:46;25.38;;;8.48;;
70558;SDS011;58108;48.094;11.838;2022-12-01T10:54:13;26.60;;;8.68;;
70558;SDS011;58108;48.094;11.838;2022-12-01T10:56:39;25.23;;;8.33;;
70558;SDS011;58108;48.094;11.838;2022-12-01T10:59:20;26.98;;;8.43;;
70558;SDS011;58108;48.094;11.838;2022-12-01T11:01:46;27.70;;;8.60;;
70558;SDS011;58108;48.094;11.838;2022-12-01T11:06:52;28.67;;;10.47;;
70558;SDS011;58108;48.094;11.838;2022-12-01T11:09:19;27.20;;;9.00;;
70558;SDS011;58108;48.094;11.838;2022-12-01T11:11:53;26.87;;;8.97;;
70558;SDS011;58108;48.094;11.838;2022-12-01T11:14:21;26.52;;;9.30;;
70558;SDS011;58108;48.094;11.838;2022-12-01T11:16:49;26.58;;;9.68;;
70558;SDS011;58108;48.094;11.838;2022-12-01T11:19:19;27.77;;;9.45;;
70558;SDS011;58108;48.094;11.838;2022-12-01T11:21:51;25.98;;;9.40;;
70558;SDS011;58108;48.094;11.838;2022-12-01T11:24:41;24.73;;;8.50;;
70558;SDS011;58108;48.094;11.838;2022-12-01T11:27:16;26.17;;;7.85;;
70558;SDS011;58108;48.094;11.838;2022-12-01T11:29:44;25.88;;;8.70;;
70558;SDS011;58108;48.094;11.838;2022-12-01T11:32:25;29.15;;;9.15;;
70558;SDS011;58108;48.094;11.838;2022-12-01T11:37:53;26.03;;;8.43;;
70558;SDS011;58108;48.094;11.838;2022-12-01T11:43:17;28.00;;;8.98;;
70558;SDS011;58108;48.094;11.838;2022-12-01T11:45:47;25.65;;;7.93;;
70558;SDS011;58108;48.094;11.838;2022-12-01T11:50:58;26.52;;;8.80;;
70558;SDS011;58108;48.094;11.838;2022-12-01T11:55:53;28.20;;;10.30;;
70558;SDS011;58108;48.094;11.838;2022-12-01T11:58:47;27.42;;;9.57;;
70558;SDS011;58108;48.094;11.838;2022-12-01T12:14:50;30.27;;;10.67;;
70558;SDS011;58108;48.094;11.838;2022-12-01T12:17:26;30.13;;;9.80;;
70558;SDS011;58108;48.094;11.838;2022-12-01T12:20:05;23.42;;;9.00;;
70558;SDS011;58108;48.094;11.838;2022-12-01T12:22:46;22.75;;;8.15;;
70558;SDS011;58108;48.094;11.838;2022-12-01T12:25:32;23.77;;;8.05;;
70558;SDS011;58108;48.094;11.838;2022-12-01T12:28:14;25.87;;;8.33;;
70558;SDS011;58108;48.094;11.838;2022-12-01T12:33:48;24.92;;;7.80;;
70558;SDS011;58108;48.094;11.838;2022-12-01T12:36:36;23.48;;;7.50;;
70558;SDS011;58108;48.094;11.838;2022-12-01T12:42:18;26.87;;;8.10;;
70558;SDS011;58108;48.094;11.838;2022-12-01T12:48:06;24.85;;;8.65;;
70558;SDS011;58108;48.094;11.838;2022-12-01T12:51:02;23.98;;;8.25;;
70558;SDS011;58108;48.094;11.838;2022-12-01T12:53:39;22.05;;;7.82;;
70558;SDS011;58108;48.094;11.838;2022-12-01T12:56:11;23.17;;;8.57;;
70558;SDS011;58108;48.094;11.838;2022-12-01T12:58:45;26.10;;;9.52;;
70558;SDS011;58108;48.094;11.838;2022-12-01T13:01:20;24.20;;;8.55;;
70558;SDS011;58108;48.094;11.838;2022-12-01T13:03:50;23.48;;;8.55;;
70558;SDS011;58108;48.094;11.838;2022-12-01T13:09:07;21.43;;;7.03;;
70558;SDS011;58108;48.094;11.838;2022-12-01T13:12:12;22.73;;;7.43;;
70558;SDS011;58108;48.094;11.838;2022-12-01T13:14:52;23.13;;;7.82;;
70558;SDS011;58108;48.094;11.838;2022-12-01T13:17:30;21.83;;;7.93;;
70558;SDS011;58108;48.094;11.838;2022-12-01T13:19:59;23.85;;;8.15;;
70558;SDS011;58108;48.094;11.838;2022-12-01T13:22:29;20.93;;;7.83;;
70558;SDS011;58108;48.094;11.838;2022-12-01T13:24:58;24.43;;;8.13;;
70558;SDS011;58108;48.094;11.838;2022-12-01T13:27:24;20.77;;;7.03;;
70558;SDS011;58108;48.094;11.838;2022-12-01T13:29:52;22.20;;;7.20;;
70558;SDS011;58108;48.094;11.838;2022-12-01T13:32:27;24.95;;;8.60;;
70558;SDS011;58108;48.094;11.838;2022-12-01T13:34:53;26.53;;;8.83;;
70558;SDS011;58108;48.094;11.838;2022-12-01T13:37:26;23.45;;;7.70;;
70558;SDS011;58108;48.094;11.838;2022-12-01T13:39:54;24.90;;;8.60;;
70558;SDS011;58108;48.094;11.838;2022-12-01T13:42:21;28.40;;;9.20;;
70558;SDS011;58108;48.094;11.838;2022-12-01T13:44:50;22.88;;;7.68;;
70558;SDS011;58108;48.094;11.838;2022-12-01T13:53:22;22.42;;;7.82;;
70558;SDS011;58108;48.094;11.838;2022-12-01T13:58:24;26.63;;;8.02;;
70558;SDS011;58108;48.094;11.838;2022-12-01T14:03:54;25.45;;;7.97;;
70558;SDS011;58108;48.094;11.838;2022-12-01T14:06:28;26.75;;;8.73;;
70558;SDS011;58108;48.094;11.838;2022-12-01T14:09:25;20.67;;;7.30;;
70558;SDS011;58108;48.094;11.838;2022-12-01T14:14:33;21.23;;;7.32;;
70558;SDS011;58108;48.094;11.838;2022-12-01T14:17:00;24.38;;;8.32;;
70558;SDS011;58108;48.094;11.838;2022-12-01T14:24:55;23.45;;;8.45;;
70558;SDS011;58108;48.094;11.838;2022-12-01T14:27:37;24.17;;;8.48;;
70558;SDS011;58108;48.094;11.838;2022-12-01T14:38:53;22.93;;;8.57;;
70558;SDS011;58108;48.094;11.838;2022-12-01T14:44:01;22.55;;;8.18;;
70558;SDS011;58108;48.094;11.838;2022-12-01T14:46:44;23.45;;;7.78;;
70558;SDS011;58108;48.094;11.838;2022-12-01T14:49:28;23.00;;;7.77;;
70558;SDS011;58108;48.094;11.838;2022-12-01T14:54:59;24.33;;;8.02;;
70558;SDS011;58108;48.094;11.838;2022-12-01T14:57:36;24.83;;;8.07;;
70558;SDS011;58108;48.094;11.838;2022-12-01T15:00:13;26.08;;;8.20;;
70558;SDS011;58108;48.094;11.838;2022-12-01T15:02:41;22.17;;;7.67;;
70558;SDS011;58108;48.094;11.838;2022-12-01T15:05:13;26.30;;;9.05;;
70558;SDS011;58108;48.094;11.838;2022-12-01T15:07:42;24.42;;;8.57;;
70558;SDS011;58108;48.094;11.838;2022-12-01T15:12:46;24.20;;;8.30;;
70558;SDS011;58108;48.094;11.838;2022-12-01T15:15:13;24.60;;;8.50;;
70558;SDS011;58108;48.094;11.838;2022-12-01T15:17:40;26.30;;;8.85;;
70558;SDS011;58108;48.094;11.838;2022-12-01T15:22:55;26.45;;;9.52;;
70558;SDS011;58108;48.094;11.838;2022-12-01T15:25:21;25.45;;;9.55;;
70558;SDS011;58108;48.094;11.838;2022-12-01T15:28:00;27.15;;;9.65;;
70558;SDS011;58108;48.094;11.838;2022-12-01T15:30:42;24.13;;;8.50;;
70558;SDS011;58108;48.094;11.838;2022-12-01T15:35:44;28.60;;;9.30;;
70558;SDS011;58108;48.094;11.838;2022-12-01T15:38:12;26.85;;;8.95;;
70558;SDS011;58108;48.094;11.838;2022-12-01T15:40:42;24.85;;;8.90;;
70558;SDS011;58108;48.094;11.838;2022-12-01T15:43:13;26.57;;;8.17;;
70558;SDS011;58108;48.094;11.838;2022-12-01T15:45:53;24.60;;;8.25;;
70558;SDS011;58108;48.094;11.838;2022-12-01T15:48:31;22.30;;;7.93;;
70558;SDS011;58108;48.094;11.838;2022-12-01T15:53:36;28.52;;;8.30;;
70558;SDS011;58108;48.094;11.838;2022-12-01T15:56:05;24.10;;;8.83;;
70558;SDS011;58108;48.094;11.838;2022-12-01T15:58:34;28.45;;;10.52;;
70558;SDS011;58108;48.094;11.838;2022-12-01T16:01:08;25.67;;;9.95;;
70558;SDS011;58108;48.094;11.838;2022-12-01T16:03:43;25.88;;;8.88;;
70558;SDS011;58108;48.094;11.838;2022-12-01T16:06:16;29.67;;;10.10;;
70558;SDS011;58108;48.094;11.838;2022-12-01T16:08:50;28.53;;;10.47;;
70558;SDS011;58108;48.094;11.838;2022-12-01T16:11:21;33.05;;;11.18;;
70558;SDS011;58108;48.094;11.838;2022-12-01T16:16:33;28.77;;;10.35;;
70558;SDS011;58108;48.094;11.838;2022-12-01T16:21:43;29.53;;;10.60;;
70558;SDS011;58108;48.094;11.838;2022-12-01T16:24:21;29.02;;;9.85;;
70558;SDS011;58108;48.094;11.838;2022-12-01T16:29:21;28.20;;;8.80;;
70558;SDS011;58108;48.094;11.838;2022-12-01T16:31:48;26.60;;;9.13;;
70558;SDS011;58108;48.094;11.838;2022-12-01T16:34:16;27.03;;;9.80;;
70558;SDS011;58108;48.094;11.838;2022-12-01T16:36:44;26.58;;;9.43;;
70558;SDS011;58108;48.094;11.838;2022-12-01T16:39:10;26.98;;;9.52;;
70558;SDS011;58108;48.094;11.838;2022-12-01T16:41:37;27.07;;;9.73;;
70558;SDS011;58108;48.094;11.838;2022-12-01T16:44:05;27.52;;;9.10;;
70558;SDS011;58108;48.094;11.838;2022-12-01T16:46:30;29.08;;;8.90;;
70558;SDS011;58108;48.094;11.838;2022-12-01T16:48:56;28.23;;;9.20;;